Main page
METAR-TAF:

METAR-TAF

Airports :

Esenboğa International Airport

Ankara Esenboğa, Turkey

latitude: 40-07N, longitude: 032-59E, elevation: 953 m

Current weather observation

The report was made 17 minutes ago, at 04:50 UTC
Wind 4 kt from the North
Temperature 17°C
Humidity 45%
Pressure 1015 hPa
Visibility 10 km or more
no clouds below 1500 m and no cumulonimbus

METAR: LTAC 200450Z 36004KT CAVOK 17/05 Q1015 NOSIG RMK RWY21L 01005KT RWY03L VRB02KT RWY21R 01005KT

Time: 08:07 (05:07 UTC)

Forecast

The report was made 6 hours and 27 minutes ago, at 22:40 UTC
Forecast valid from 20 at 00 UTC to 20 at 24 UTC
Wind 2 kt from variable directions
Visibility 10 km or more
no clouds below 1500 m and no cumulonimbus
Becoming
from 20 at 06 UTC to 20 at 08 UTC
Scattered clouds at a height of 4000 ft
Becoming
from 20 at 16 UTC to 20 at 19 UTC
Visibility 10 km or more
no clouds below 1500 m and no cumulonimbus

TAF: LTAC 192240Z 2000/2024 VRB02KT CAVOK BECMG 2006/2008 SCT040 BECMG 2016/2019 CAVOK

Weather observations and forecasts of more than 4000 airports (METAR and TAF reports).

The available stations are represented by yellow and red dots on the map.

Hover mouse over dot to see the name of the station.

Then click to see weather observations and forecasts.

To change the map : click on the green buttons with a black cross to zoom in, on the green button with a dash to zoom out, or on the green arrows for adjacent maps.


METAR-TAF: